De Valls Bluff, Arkansas
Current Conditions -  °F | °C
As of 2:15 AM on Monday 24 Nov 2014 (Local Time) from KSGT Reporting Station
Overcast Overcast  
Wind Chill: 55°   Ceiling: 2700
Heat Index: 55°   Visibility: 10mi
Dew Point: 48°   Wind: 16mph
Humidity: 77%   Direction: 260°W
Pressure: 29.57"   Gusts: NA
Location:  34.78°N, 91.46°W
Report Text: KSGT 240815Z AUTO 26014KT 10SM BKN027 OVC034 13/09 A2957 RMK AO1
Loading
Personal Weather Stations






























Interactive Weather Map New forecast layout! Learn more

10-Day Weather Forecast

Advertisements
Track Severe Weather on mobile